sensor_id;sensor_type;location;lat;lon;timestamp;P1;durP1;ratioP1;P2;durP2;ratioP2
20251;SDS011;10284;58.364;15.550;2022-10-29T00:01:52;16.77;;;8.18;;
20251;SDS011;10284;58.364;15.550;2022-10-29T00:04:17;16.80;;;7.38;;
20251;SDS011;10284;58.364;15.550;2022-10-29T00:06:43;16.23;;;7.68;;
20251;SDS011;10284;58.364;15.550;2022-10-29T00:09:09;15.50;;;8.60;;
20251;SDS011;10284;58.364;15.550;2022-10-29T00:11:34;17.23;;;8.48;;
20251;SDS011;10284;58.364;15.550;2022-10-29T00:14:00;17.02;;;8.82;;
20251;SDS011;10284;58.364;15.550;2022-10-29T00:16:33;17.75;;;9.70;;
20251;SDS011;10284;58.364;15.550;2022-10-29T00:19:00;26.38;;;10.27;;
20251;SDS011;10284;58.364;15.550;2022-10-29T00:21:25;17.83;;;9.93;;
20251;SDS011;10284;58.364;15.550;2022-10-29T00:23:52;18.92;;;9.93;;
20251;SDS011;10284;58.364;15.550;2022-10-29T00:26:20;23.15;;;11.23;;
20251;SDS011;10284;58.364;15.550;2022-10-29T00:28:45;21.52;;;11.35;;
20251;SDS011;10284;58.364;15.550;2022-10-29T00:31:15;23.95;;;12.40;;
20251;SDS011;10284;58.364;15.550;2022-10-29T00:33:42;20.30;;;11.00;;
20251;SDS011;10284;58.364;15.550;2022-10-29T00:36:09;23.95;;;11.73;;
20251;SDS011;10284;58.364;15.550;2022-10-29T00:38:36;23.90;;;12.18;;
20251;SDS011;10284;58.364;15.550;2022-10-29T00:41:02;26.98;;;12.93;;
20251;SDS011;10284;58.364;15.550;2022-10-29T00:43:28;25.85;;;13.45;;
20251;SDS011;10284;58.364;15.550;2022-10-29T00:45:59;25.15;;;12.75;;
20251;SDS011;10284;58.364;15.550;2022-10-29T00:48:28;28.23;;;13.98;;
20251;SDS011;10284;58.364;15.550;2022-10-29T00:50:54;32.75;;;14.07;;
20251;SDS011;10284;58.364;15.550;2022-10-29T00:53:23;29.65;;;14.25;;
20251;SDS011;10284;58.364;15.550;2022-10-29T00:55:51;25.92;;;14.77;;
20251;SDS011;10284;58.364;15.550;2022-10-29T00:58:16;33.03;;;14.82;;
20251;SDS011;10284;58.364;15.550;2022-10-29T01:00:43;32.97;;;15.45;;
20251;SDS011;10284;58.364;15.550;2022-10-29T01:03:08;35.08;;;16.13;;
20251;SDS011;10284;58.364;15.550;2022-10-29T01:05:34;30.98;;;16.30;;
20251;SDS011;10284;58.364;15.550;2022-10-29T01:08:00;31.92;;;16.25;;
20251;SDS011;10284;58.364;15.550;2022-10-29T01:10:53;30.67;;;15.43;;
20251;SDS011;10284;58.364;15.550;2022-10-29T01:21:26;40.95;;;20.45;;
20251;SDS011;10284;58.364;15.550;2022-10-29T01:24:02;45.27;;;20.47;;
20251;SDS011;10284;58.364;15.550;2022-10-29T01:40:53;46.13;;;21.63;;
20251;SDS011;10284;58.364;15.550;2022-10-29T01:43:27;54.45;;;23.08;;
20251;SDS011;10284;58.364;15.550;2022-10-29T01:48:31;50.03;;;22.10;;
20251;SDS011;10284;58.364;15.550;2022-10-29T01:51:00;50.58;;;22.98;;
20251;SDS011;10284;58.364;15.550;2022-10-29T01:53:28;52.60;;;24.33;;
20251;SDS011;10284;58.364;15.550;2022-10-29T01:55:54;54.30;;;24.38;;
20251;SDS011;10284;58.364;15.550;2022-10-29T01:58:19;52.72;;;24.58;;
20251;SDS011;10284;58.364;15.550;2022-10-29T02:01:01;52.03;;;24.00;;
20251;SDS011;10284;58.364;15.550;2022-10-29T02:09:19;45.28;;;24.10;;
20251;SDS011;10284;58.364;15.550;2022-10-29T02:12:03;45.33;;;24.25;;
20251;SDS011;10284;58.364;15.550;2022-10-29T02:14:46;45.55;;;23.38;;
20251;SDS011;10284;58.364;15.550;2022-10-29T02:17:13;41.25;;;23.10;;
20251;SDS011;10284;58.364;15.550;2022-10-29T02:19:38;49.72;;;24.05;;
20251;SDS011;10284;58.364;15.550;2022-10-29T02:22:04;50.15;;;23.63;;
20251;SDS011;10284;58.364;15.550;2022-10-29T02:24:29;43.78;;;23.50;;
20251;SDS011;10284;58.364;15.550;2022-10-29T02:26:55;46.28;;;23.60;;
20251;SDS011;10284;58.364;15.550;2022-10-29T02:29:20;42.90;;;23.75;;
20251;SDS011;10284;58.364;15.550;2022-10-29T02:31:45;45.03;;;23.27;;
20251;SDS011;10284;58.364;15.550;2022-10-29T02:34:11;44.28;;;23.60;;
20251;SDS011;10284;58.364;15.550;2022-10-29T02:36:38;41.15;;;22.38;;
20251;SDS011;10284;58.364;15.550;2022-10-29T02:39:03;45.25;;;22.25;;
20251;SDS011;10284;58.364;15.550;2022-10-29T02:41:29;41.15;;;20.95;;
20251;SDS011;10284;58.364;15.550;2022-10-29T02:43:54;38.95;;;21.52;;
20251;SDS011;10284;58.364;15.550;2022-10-29T02:46:20;40.65;;;20.00;;
20251;SDS011;10284;58.364;15.550;2022-10-29T02:48:47;36.08;;;20.08;;
20251;SDS011;10284;58.364;15.550;2022-10-29T02:51:12;32.25;;;18.45;;
20251;SDS011;10284;58.364;15.550;2022-10-29T02:53:38;32.30;;;18.80;;
20251;SDS011;10284;58.364;15.550;2022-10-29T02:56:04;33.80;;;16.55;;
20251;SDS011;10284;58.364;15.550;2022-10-29T02:58:30;25.83;;;16.70;;
20251;SDS011;10284;58.364;15.550;2022-10-29T03:00:55;27.73;;;16.00;;
20251;SDS011;10284;58.364;15.550;2022-10-29T03:03:21;26.10;;;15.60;;
20251;SDS011;10284;58.364;15.550;2022-10-29T03:05:46;24.20;;;13.40;;
20251;SDS011;10284;58.364;15.550;2022-10-29T03:08:11;22.92;;;12.48;;
20251;SDS011;10284;58.364;15.550;2022-10-29T03:10:37;20.77;;;12.25;;
20251;SDS011;10284;58.364;15.550;2022-10-29T03:13:02;18.38;;;11.40;;
20251;SDS011;10284;58.364;15.550;2022-10-29T03:15:28;18.33;;;11.23;;
20251;SDS011;10284;58.364;15.550;2022-10-29T03:17:53;17.92;;;9.93;;
20251;SDS011;10284;58.364;15.550;2022-10-29T03:20:19;14.13;;;9.55;;
20251;SDS011;10284;58.364;15.550;2022-10-29T03:22:44;12.32;;;8.68;;
20251;SDS011;10284;58.364;15.550;2022-10-29T03:25:09;13.30;;;8.32;;
20251;SDS011;10284;58.364;15.550;2022-10-29T03:27:41;13.48;;;9.27;;
20251;SDS011;10284;58.364;15.550;2022-10-29T03:30:08;11.30;;;8.02;;
20251;SDS011;10284;58.364;15.550;2022-10-29T03:32:40;12.57;;;7.75;;
20251;SDS011;10284;58.364;15.550;2022-10-29T03:35:09;10.73;;;7.40;;
20251;SDS011;10284;58.364;15.550;2022-10-29T03:37:36;9.43;;;6.95;;
20251;SDS011;10284;58.364;15.550;2022-10-29T03:40:02;10.23;;;6.82;;
20251;SDS011;10284;58.364;15.550;2022-10-29T03:42:28;7.85;;;5.70;;
20251;SDS011;10284;58.364;15.550;2022-10-29T03:44:55;9.40;;;5.90;;
20251;SDS011;10284;58.364;15.550;2022-10-29T03:47:21;9.07;;;5.72;;
20251;SDS011;10284;58.364;15.550;2022-10-29T03:49:47;8.65;;;5.05;;
20251;SDS011;10284;58.364;15.550;2022-10-29T03:52:12;7.82;;;4.72;;
20251;SDS011;10284;58.364;15.550;2022-10-29T03:54:38;7.05;;;4.03;;
20251;SDS011;10284;58.364;15.550;2022-10-29T03:57:03;8.85;;;3.80;;
20251;SDS011;10284;58.364;15.550;2022-10-29T03:59:28;9.85;;;3.55;;
20251;SDS011;10284;58.364;15.550;2022-10-29T04:01:54;7.45;;;3.17;;
20251;SDS011;10284;58.364;15.550;2022-10-29T04:04:19;6.93;;;2.85;;
20251;SDS011;10284;58.364;15.550;2022-10-29T04:06:45;5.10;;;2.67;;
20251;SDS011;10284;58.364;15.550;2022-10-29T04:09:10;10.98;;;2.80;;
20251;SDS011;10284;58.364;15.550;2022-10-29T04:11:35;6.78;;;2.83;;
20251;SDS011;10284;58.364;15.550;2022-10-29T04:14:01;16.38;;;3.55;;
20251;SDS011;10284;58.364;15.550;2022-10-29T04:16:26;10.43;;;3.03;;
20251;SDS011;10284;58.364;15.550;2022-10-29T04:18:52;11.52;;;2.45;;
20251;SDS011;10284;58.364;15.550;2022-10-29T04:21:17;8.65;;;2.47;;
20251;SDS011;10284;58.364;15.550;2022-10-29T04:23:43;9.27;;;2.63;;
20251;SDS011;10284;58.364;15.550;2022-10-29T04:26:08;14.13;;;3.40;;
20251;SDS011;10284;58.364;15.550;2022-10-29T04:28:33;14.30;;;2.80;;
20251;SDS011;10284;58.364;15.550;2022-10-29T04:31:05;16.48;;;3.30;;
20251;SDS011;10284;58.364;15.550;2022-10-29T04:33:31;15.95;;;3.05;;
20251;SDS011;10284;58.364;15.550;2022-10-29T04:35:57;14.40;;;2.80;;
20251;SDS011;10284;58.364;15.550;2022-10-29T04:38:23;17.65;;;3.03;;
20251;SDS011;10284;58.364;15.550;2022-10-29T04:40:48;13.70;;;3.22;;
20251;SDS011;10284;58.364;15.550;2022-10-29T04:43:17;14.32;;;3.25;;
20251;SDS011;10284;58.364;15.550;2022-10-29T04:45:43;14.95;;;2.92;;
20251;SDS011;10284;58.364;15.550;2022-10-29T04:48:08;12.90;;;2.80;;
20251;SDS011;10284;58.364;15.550;2022-10-29T04:50:35;15.57;;;2.90;;
20251;SDS011;10284;58.364;15.550;2022-10-29T04:53:02;14.45;;;3.47;;
20251;SDS011;10284;58.364;15.550;2022-10-29T04:55:29;13.07;;;2.85;;
20251;SDS011;10284;58.364;15.550;2022-10-29T04:57:54;14.25;;;3.38;;
20251;SDS011;10284;58.364;15.550;2022-10-29T05:00:20;14.50;;;2.90;;
20251;SDS011;10284;58.364;15.550;2022-10-29T05:02:49;15.77;;;2.70;;
20251;SDS011;10284;58.364;15.550;2022-10-29T05:05:16;23.02;;;3.67;;
20251;SDS011;10284;58.364;15.550;2022-10-29T05:07:42;18.25;;;3.10;;
20251;SDS011;10284;58.364;15.550;2022-10-29T05:10:08;13.05;;;3.15;;
20251;SDS011;10284;58.364;15.550;2022-10-29T05:12:34;19.23;;;2.78;;
20251;SDS011;10284;58.364;15.550;2022-10-29T05:14:59;19.38;;;4.03;;
20251;SDS011;10284;58.364;15.550;2022-10-29T05:17:27;13.02;;;2.58;;
20251;SDS011;10284;58.364;15.550;2022-10-29T05:19:53;18.55;;;2.95;;
20251;SDS011;10284;58.364;15.550;2022-10-29T05:22:18;23.45;;;3.83;;
20251;SDS011;10284;58.364;15.550;2022-10-29T05:24:44;21.40;;;3.08;;
20251;SDS011;10284;58.364;15.550;2022-10-29T05:27:09;15.40;;;3.85;;
20251;SDS011;10284;58.364;15.550;2022-10-29T05:29:34;14.63;;;3.22;;
20251;SDS011;10284;58.364;15.550;2022-10-29T05:32:00;15.82;;;2.83;;
20251;SDS011;10284;58.364;15.550;2022-10-29T05:34:25;16.05;;;2.92;;
20251;SDS011;10284;58.364;15.550;2022-10-29T05:36:51;15.75;;;2.70;;
20251;SDS011;10284;58.364;15.550;2022-10-29T05:39:16;13.20;;;2.60;;
20251;SDS011;10284;58.364;15.550;2022-10-29T05:41:42;15.43;;;3.35;;
20251;SDS011;10284;58.364;15.550;2022-10-29T05:44:07;13.38;;;2.95;;
20251;SDS011;10284;58.364;15.550;2022-10-29T05:46:32;17.17;;;2.90;;
20251;SDS011;10284;58.364;15.550;2022-10-29T05:48:58;18.55;;;3.08;;
20251;SDS011;10284;58.364;15.550;2022-10-29T05:51:23;13.60;;;2.85;;
20251;SDS011;10284;58.364;15.550;2022-10-29T05:53:49;18.63;;;3.35;;
20251;SDS011;10284;58.364;15.550;2022-10-29T05:56:14;19.92;;;3.10;;
20251;SDS011;10284;58.364;15.550;2022-10-29T05:58:39;20.48;;;3.58;;
20251;SDS011;10284;58.364;15.550;2022-10-29T06:01:06;15.98;;;3.08;;
20251;SDS011;10284;58.364;15.550;2022-10-29T06:03:32;17.80;;;2.90;;
20251;SDS011;10284;58.364;15.550;2022-10-29T06:05:57;15.13;;;2.60;;
20251;SDS011;10284;58.364;15.550;2022-10-29T06:08:23;20.63;;;3.17;;
20251;SDS011;10284;58.364;15.550;2022-10-29T06:10:48;16.33;;;3.20;;
20251;SDS011;10284;58.364;15.550;2022-10-29T06:13:14;20.70;;;2.80;;
20251;SDS011;10284;58.364;15.550;2022-10-29T06:15:42;16.48;;;2.65;;
20251;SDS011;10284;58.364;15.550;2022-10-29T06:18:07;16.67;;;3.28;;
20251;SDS011;10284;58.364;15.550;2022-10-29T06:20:33;17.73;;;2.78;;
20251;SDS011;10284;58.364;15.550;2022-10-29T06:22:58;12.55;;;2.50;;
20251;SDS011;10284;58.364;15.550;2022-10-29T06:25:24;18.92;;;3.00;;
20251;SDS011;10284;58.364;15.550;2022-10-29T06:27:57;18.15;;;3.35;;
20251;SDS011;10284;58.364;15.550;2022-10-29T06:30:26;16.73;;;3.22;;
20251;SDS011;10284;58.364;15.550;2022-10-29T06:32:51;19.83;;;3.10;;
20251;SDS011;10284;58.364;15.550;2022-10-29T06:35:17;19.40;;;3.25;;
20251;SDS011;10284;58.364;15.550;2022-10-29T06:37:42;13.25;;;2.38;;
20251;SDS011;10284;58.364;15.550;2022-10-29T06:40:08;14.57;;;2.72;;
20251;SDS011;10284;58.364;15.550;2022-10-29T06:42:33;14.82;;;2.45;;
20251;SDS011;10284;58.364;15.550;2022-10-29T06:44:59;14.88;;;2.55;;
20251;SDS011;10284;58.364;15.550;2022-10-29T06:47:24;15.98;;;2.55;;
20251;SDS011;10284;58.364;15.550;2022-10-29T06:49:50;14.63;;;3.05;;
20251;SDS011;10284;58.364;15.550;2022-10-29T06:52:15;14.25;;;2.33;;
20251;SDS011;10284;58.364;15.550;2022-10-29T06:54:40;16.40;;;2.55;;
20251;SDS011;10284;58.364;15.550;2022-10-29T06:57:06;16.63;;;2.40;;
20251;SDS011;10284;58.364;15.550;2022-10-29T06:59:31;14.48;;;2.40;;
20251;SDS011;10284;58.364;15.550;2022-10-29T07:01:56;10.27;;;2.00;;
20251;SDS011;10284;58.364;15.550;2022-10-29T07:04:22;14.70;;;2.15;;
20251;SDS011;10284;58.364;15.550;2022-10-29T07:06:47;20.20;;;2.97;;
20251;SDS011;10284;58.364;15.550;2022-10-29T07:09:13;12.25;;;2.63;;
20251;SDS011;10284;58.364;15.550;2022-10-29T07:11:38;8.27;;;2.10;;
20251;SDS011;10284;58.364;15.550;2022-10-29T07:14:03;13.48;;;2.78;;
20251;SDS011;10284;58.364;15.550;2022-10-29T07:16:33;13.15;;;2.17;;
20251;SDS011;10284;58.364;15.550;2022-10-29T07:18:59;12.35;;;2.20;;
20251;SDS011;10284;58.364;15.550;2022-10-29T07:21:25;18.25;;;2.85;;
20251;SDS011;10284;58.364;15.550;2022-10-29T07:23:50;13.75;;;2.50;;
20251;SDS011;10284;58.364;15.550;2022-10-29T07:26:16;7.47;;;1.67;;
20251;SDS011;10284;58.364;15.550;2022-10-29T07:28:41;13.43;;;2.45;;
20251;SDS011;10284;58.364;15.550;2022-10-29T07:31:07;11.43;;;2.25;;
20251;SDS011;10284;58.364;15.550;2022-10-29T07:33:32;16.10;;;2.50;;
20251;SDS011;10284;58.364;15.550;2022-10-29T07:35:57;14.88;;;1.90;;
20251;SDS011;10284;58.364;15.550;2022-10-29T07:38:23;12.75;;;2.55;;
20251;SDS011;10284;58.364;15.550;2022-10-29T07:40:49;12.60;;;2.20;;
20251;SDS011;10284;58.364;15.550;2022-10-29T07:43:15;13.02;;;2.40;;
20251;SDS011;10284;58.364;15.550;2022-10-29T07:45:41;13.85;;;2.53;;
20251;SDS011;10284;58.364;15.550;2022-10-29T07:48:08;13.07;;;2.58;;
20251;SDS011;10284;58.364;15.550;2022-10-29T07:50:34;10.52;;;1.98;;
20251;SDS011;10284;58.364;15.550;2022-10-29T07:53:00;18.10;;;1.90;;
20251;SDS011;10284;58.364;15.550;2022-10-29T07:55:26;10.48;;;2.15;;
20251;SDS011;10284;58.364;15.550;2022-10-29T07:57:59;12.75;;;2.22;;
20251;SDS011;10284;58.364;15.550;2022-10-29T08:00:30;11.82;;;1.77;;
20251;SDS011;10284;58.364;15.550;2022-10-29T08:02:56;12.48;;;2.22;;
20251;SDS011;10284;58.364;15.550;2022-10-29T08:05:22;9.13;;;1.90;;
20251;SDS011;10284;58.364;15.550;2022-10-29T08:07:48;14.98;;;2.40;;
20251;SDS011;10284;58.364;15.550;2022-10-29T08:10:14;13.30;;;2.22;;
20251;SDS011;10284;58.364;15.550;2022-10-29T08:12:46;14.95;;;2.42;;
20251;SDS011;10284;58.364;15.550;2022-10-29T08:15:13;10.10;;;1.67;;
20251;SDS011;10284;58.364;15.550;2022-10-29T08:17:38;9.85;;;2.25;;
20251;SDS011;10284;58.364;15.550;2022-10-29T08:20:04;7.50;;;1.92;;
20251;SDS011;10284;58.364;15.550;2022-10-29T08:22:29;10.38;;;1.63;;
20251;SDS011;10284;58.364;15.550;2022-10-29T08:24:55;12.95;;;2.70;;
20251;SDS011;10284;58.364;15.550;2022-10-29T08:27:20;6.50;;;1.73;;
20251;SDS011;10284;58.364;15.550;2022-10-29T08:29:45;12.45;;;2.28;;
20251;SDS011;10284;58.364;15.550;2022-10-29T08:32:11;11.77;;;1.85;;
20251;SDS011;10284;58.364;15.550;2022-10-29T08:34:36;8.43;;;2.00;;
20251;SDS011;10284;58.364;15.550;2022-10-29T08:37:02;9.25;;;1.60;;
20251;SDS011;10284;58.364;15.550;2022-10-29T08:39:27;6.40;;;1.40;;
20251;SDS011;10284;58.364;15.550;2022-10-29T08:44:27;11.15;;;1.48;;
20251;SDS011;10284;58.364;15.550;2022-10-29T08:47:11;8.15;;;1.42;;
20251;SDS011;10284;58.364;15.550;2022-10-29T08:52:25;6.18;;;1.33;;
20251;SDS011;10284;58.364;15.550;2022-10-29T08:54:59;9.75;;;2.65;;
20251;SDS011;10284;58.364;15.550;2022-10-29T08:57:32;6.20;;;1.30;;
20251;SDS011;10284;58.364;15.550;2022-10-29T09:02:29;4.30;;;1.40;;
20251;SDS011;10284;58.364;15.550;2022-10-29T09:04:54;8.80;;;1.30;;
20251;SDS011;10284;58.364;15.550;2022-10-29T09:26:21;6.45;;;1.52;;
20251;SDS011;10284;58.364;15.550;2022-10-29T09:32:23;7.43;;;1.27;;
20251;SDS011;10284;58.364;15.550;2022-10-29T09:34:48;8.82;;;1.65;;
20251;SDS011;10284;58.364;15.550;2022-10-29T09:37:16;8.50;;;1.52;;
20251;SDS011;10284;58.364;15.550;2022-10-29T09:39:45;9.15;;;1.50;;
20251;SDS011;10284;58.364;15.550;2022-10-29T09:42:12;11.02;;;1.60;;
20251;SDS011;10284;58.364;15.550;2022-10-29T09:47:37;6.82;;;1.30;;
20251;SDS011;10284;58.364;15.550;2022-10-29T09:52:32;6.07;;;1.40;;
20251;SDS011;10284;58.364;15.550;2022-10-29T09:54:59;8.13;;;1.70;;
20251;SDS011;10284;58.364;15.550;2022-10-29T09:57:28;10.60;;;1.90;;
20251;SDS011;10284;58.364;15.550;2022-10-29T09:59:59;11.63;;;1.83;;
20251;SDS011;10284;58.364;15.550;2022-10-29T10:04:55;8.98;;;1.67;;
20251;SDS011;10284;58.364;15.550;2022-10-29T10:07:22;11.95;;;1.83;;
20251;SDS011;10284;58.364;15.550;2022-10-29T10:09:52;10.70;;;1.83;;
20251;SDS011;10284;58.364;15.550;2022-10-29T10:12:25;7.55;;;1.83;;
20251;SDS011;10284;58.364;15.550;2022-10-29T10:15:16;9.10;;;1.90;;
20251;SDS011;10284;58.364;15.550;2022-10-29T10:17:59;9.98;;;1.88;;
20251;SDS011;10284;58.364;15.550;2022-10-29T10:20:38;11.85;;;1.45;;
20251;SDS011;10284;58.364;15.550;2022-10-29T10:23:20;9.10;;;1.50;;
20251;SDS011;10284;58.364;15.550;2022-10-29T10:25:51;10.60;;;1.73;;
20251;SDS011;10284;58.364;15.550;2022-10-29T10:33:30;11.00;;;1.88;;
20251;SDS011;10284;58.364;15.550;2022-10-29T10:36:01;14.55;;;1.50;;
20251;SDS011;10284;58.364;15.550;2022-10-29T10:38:43;9.75;;;1.27;;
20251;SDS011;10284;58.364;15.550;2022-10-29T10:41:10;12.50;;;1.30;;
20251;SDS011;10284;58.364;15.550;2022-10-29T10:43:37;9.38;;;1.48;;
20251;SDS011;10284;58.364;15.550;2022-10-29T10:46:10;8.07;;;1.80;;
20251;SDS011;10284;58.364;15.550;2022-10-29T10:48:38;8.38;;;1.65;;
20251;SDS011;10284;58.364;15.550;2022-10-29T10:51:12;9.32;;;1.60;;
20251;SDS011;10284;58.364;15.550;2022-10-29T10:53:42;6.28;;;1.38;;
20251;SDS011;10284;58.364;15.550;2022-10-29T10:56:13;8.30;;;1.45;;
20251;SDS011;10284;58.364;15.550;2022-10-29T10:58:41;10.00;;;1.77;;
20251;SDS011;10284;58.364;15.550;2022-10-29T11:03:37;10.93;;;1.50;;
20251;SDS011;10284;58.364;15.550;2022-10-29T11:06:24;6.82;;;1.75;;
20251;SDS011;10284;58.364;15.550;2022-10-29T11:09:09;10.40;;;1.50;;
20251;SDS011;10284;58.364;15.550;2022-10-29T11:11:42;7.65;;;1.75;;
20251;SDS011;10284;58.364;15.550;2022-10-29T11:14:14;14.50;;;2.00;;
20251;SDS011;10284;58.364;15.550;2022-10-29T11:16:54;7.68;;;1.80;;
20251;SDS011;10284;58.364;15.550;2022-10-29T11:19:26;9.05;;;1.70;;
20251;SDS011;10284;58.364;15.550;2022-10-29T11:21:58;7.13;;;1.30;;
20251;SDS011;10284;58.364;15.550;2022-10-29T11:30:12;11.27;;;1.92;;
20251;SDS011;10284;58.364;15.550;2022-10-29T11:35:45;10.52;;;1.30;;
20251;SDS011;10284;58.364;15.550;2022-10-29T11:38:17;6.88;;;1.63;;
20251;SDS011;10284;58.364;15.550;2022-10-29T11:43:23;9.00;;;1.50;;
20251;SDS011;10284;58.364;15.550;2022-10-29T11:45:54;6.43;;;1.27;;
20251;SDS011;10284;58.364;15.550;2022-10-29T11:57:23;6.53;;;1.38;;
20251;SDS011;10284;58.364;15.550;2022-10-29T12:24:03;9.85;;;1.67;;
20251;SDS011;10284;58.364;15.550;2022-10-29T12:26:43;7.13;;;1.80;;
20251;SDS011;10284;58.364;15.550;2022-10-29T12:31:38;11.80;;;1.83;;
20251;SDS011;10284;58.364;15.550;2022-10-29T12:39:31;15.23;;;2.08;;
20251;SDS011;10284;58.364;15.550;2022-10-29T12:42:18;12.70;;;2.10;;
20251;SDS011;10284;58.364;15.550;2022-10-29T12:44:59;10.38;;;1.73;;
20251;SDS011;10284;58.364;15.550;2022-10-29T12:52:48;12.70;;;1.92;;
20251;SDS011;10284;58.364;15.550;2022-10-29T12:55:16;9.02;;;1.80;;
20251;SDS011;10284;58.364;15.550;2022-10-29T12:57:42;11.73;;;2.13;;
20251;SDS011;10284;58.364;15.550;2022-10-29T13:02:52;11.48;;;1.77;;
20251;SDS011;10284;58.364;15.550;2022-10-29T13:05:21;11.98;;;2.65;;
20251;SDS011;10284;58.364;15.550;2022-10-29T13:15:44;10.05;;;2.70;;
20251;SDS011;10284;58.364;15.550;2022-10-29T13:20:59;16.08;;;1.98;;
20251;SDS011;10284;58.364;15.550;2022-10-29T13:30:44;9.73;;;2.20;;
20251;SDS011;10284;58.364;15.550;2022-10-29T13:35:54;12.57;;;1.77;;
20251;SDS011;10284;58.364;15.550;2022-10-29T13:49:07;15.38;;;2.33;;
20251;SDS011;10284;58.364;15.550;2022-10-29T13:51:38;14.45;;;2.53;;
20251;SDS011;10284;58.364;15.550;2022-10-29T13:54:14;13.50;;;2.17;;
20251;SDS011;10284;58.364;15.550;2022-10-29T13:56:58;9.32;;;2.00;;
20251;SDS011;10284;58.364;15.550;2022-10-29T14:05:22;19.45;;;2.78;;
20251;SDS011;10284;58.364;15.550;2022-10-29T14:07:55;16.02;;;2.15;;
20251;SDS011;10284;58.364;15.550;2022-10-29T14:10:29;13.65;;;3.30;;
20251;SDS011;10284;58.364;15.550;2022-10-29T14:13:06;13.30;;;2.45;;
20251;SDS011;10284;58.364;15.550;2022-10-29T14:15:38;11.57;;;2.60;;
20251;SDS011;10284;58.364;15.550;2022-10-29T14:18:16;13.05;;;2.28;;
20251;SDS011;10284;58.364;15.550;2022-10-29T14:20:43;12.98;;;2.20;;
20251;SDS011;10284;58.364;15.550;2022-10-29T14:23:18;15.48;;;2.92;;
20251;SDS011;10284;58.364;15.550;2022-10-29T14:25:43;12.55;;;2.35;;
20251;SDS011;10284;58.364;15.550;2022-10-29T14:28:16;11.82;;;2.20;;
20251;SDS011;10284;58.364;15.550;2022-10-29T14:33:30;11.75;;;2.42;;
20251;SDS011;10284;58.364;15.550;2022-10-29T14:36:07;17.25;;;2.90;;
20251;SDS011;10284;58.364;15.550;2022-10-29T14:41:27;20.80;;;2.63;;
20251;SDS011;10284;58.364;15.550;2022-10-29T14:43:57;17.88;;;3.05;;
20251;SDS011;10284;58.364;15.550;2022-10-29T14:46:28;13.43;;;2.60;;
20251;SDS011;10284;58.364;15.550;2022-10-29T14:48:59;17.02;;;3.28;;
20251;SDS011;10284;58.364;15.550;2022-10-29T14:52:06;10.20;;;2.17;;
20251;SDS011;10284;58.364;15.550;2022-10-29T14:54:50;15.10;;;2.70;;
20251;SDS011;10284;58.364;15.550;2022-10-29T14:57:16;13.82;;;2.58;;
20251;SDS011;10284;58.364;15.550;2022-10-29T14:59:48;13.90;;;2.58;;
20251;SDS011;10284;58.364;15.550;2022-10-29T15:02:15;16.30;;;2.60;;
20251;SDS011;10284;58.364;15.550;2022-10-29T15:04:45;15.40;;;2.70;;
20251;SDS011;10284;58.364;15.550;2022-10-29T15:09:40;12.00;;;2.47;;
20251;SDS011;10284;58.364;15.550;2022-10-29T15:12:19;18.23;;;2.85;;
20251;SDS011;10284;58.364;15.550;2022-10-29T15:14:47;15.38;;;2.63;;
20251;SDS011;10284;58.364;15.550;2022-10-29T15:19:44;14.90;;;2.67;;
20251;SDS011;10284;58.364;15.550;2022-10-29T15:22:10;12.32;;;3.10;;
20251;SDS011;10284;58.364;15.550;2022-10-29T15:24:38;14.55;;;2.63;;
20251;SDS011;10284;58.364;15.550;2022-10-29T15:27:09;17.17;;;2.80;;
20251;SDS011;10284;58.364;15.550;2022-10-29T15:29:36;17.58;;;2.88;;
20251;SDS011;10284;58.364;15.550;2022-10-29T15:32:04;17.27;;;2.63;;
20251;SDS011;10284;58.364;15.550;2022-10-29T15:34:33;13.25;;;2.60;;
20251;SDS011;10284;58.364;15.550;2022-10-29T15:42:25;16.73;;;3.05;;
20251;SDS011;10284;58.364;15.550;2022-10-29T15:47:51;14.23;;;3.10;;
20251;SDS011;10284;58.364;15.550;2022-10-29T15:50:18;16.33;;;2.72;;
20251;SDS011;10284;58.364;15.550;2022-10-29T15:52:51;16.65;;;2.60;;
20251;SDS011;10284;58.364;15.550;2022-10-29T15:55:27;14.13;;;3.22;;
20251;SDS011;10284;58.364;15.550;2022-10-29T15:57:55;22.30;;;3.50;;
20251;SDS011;10284;58.364;15.550;2022-10-29T16:00:24;16.73;;;3.25;;
20251;SDS011;10284;58.364;15.550;2022-10-29T16:02:49;19.02;;;3.50;;
20251;SDS011;10284;58.364;15.550;2022-10-29T16:05:15;15.32;;;2.92;;
20251;SDS011;10284;58.364;15.550;2022-10-29T16:07:42;15.38;;;2.55;;
20251;SDS011;10284;58.364;15.550;2022-10-29T16:10:15;13.40;;;2.83;;
20251;SDS011;10284;58.364;15.550;2022-10-29T16:12:44;12.88;;;2.40;;
20251;SDS011;10284;58.364;15.550;2022-10-29T16:15:14;14.55;;;2.72;;
20251;SDS011;10284;58.364;15.550;2022-10-29T16:17:41;14.05;;;2.85;;
20251;SDS011;10284;58.364;15.550;2022-10-29T16:20:07;18.65;;;2.97;;
20251;SDS011;10284;58.364;15.550;2022-10-29T16:22:36;18.90;;;2.80;;
20251;SDS011;10284;58.364;15.550;2022-10-29T16:25:01;17.85;;;2.65;;
20251;SDS011;10284;58.364;15.550;2022-10-29T16:27:27;18.23;;;2.38;;
20251;SDS011;10284;58.364;15.550;2022-10-29T16:29:52;15.20;;;2.92;;
20251;SDS011;10284;58.364;15.550;2022-10-29T16:32:20;17.30;;;3.28;;
20251;SDS011;10284;58.364;15.550;2022-10-29T16:34:46;20.33;;;2.83;;
20251;SDS011;10284;58.364;15.550;2022-10-29T16:37:12;18.80;;;3.10;;
20251;SDS011;10284;58.364;15.550;2022-10-29T16:39:42;19.70;;;3.20;;
20251;SDS011;10284;58.364;15.550;2022-10-29T16:44:53;14.32;;;3.10;;
20251;SDS011;10284;58.364;15.550;2022-10-29T16:47:18;15.00;;;3.05;;
20251;SDS011;10284;58.364;15.550;2022-10-29T16:49:44;14.32;;;2.60;;
20251;SDS011;10284;58.364;15.550;2022-10-29T16:52:09;14.70;;;3.00;;
20251;SDS011;10284;58.364;15.550;2022-10-29T16:54:35;19.05;;;3.58;;
20251;SDS011;10284;58.364;15.550;2022-10-29T16:57:00;11.00;;;2.42;;
20251;SDS011;10284;58.364;15.550;2022-10-29T16:59:26;15.90;;;3.05;;
20251;SDS011;10284;58.364;15.550;2022-10-29T17:01:51;14.20;;;2.40;;
20251;SDS011;10284;58.364;15.550;2022-10-29T17:04:17;20.45;;;3.33;;
20251;SDS011;10284;58.364;15.550;2022-10-29T17:06:42;14.18;;;2.72;;
20251;SDS011;10284;58.364;15.550;2022-10-29T17:09:08;17.63;;;3.33;;
20251;SDS011;10284;58.364;15.550;2022-10-29T17:11:33;15.10;;;2.50;;
20251;SDS011;10284;58.364;15.550;2022-10-29T17:13:59;19.45;;;3.00;;
20251;SDS011;10284;58.364;15.550;2022-10-29T17:16:24;11.43;;;2.33;;
20251;SDS011;10284;58.364;15.550;2022-10-29T17:18:49;15.43;;;2.58;;
20251;SDS011;10284;58.364;15.550;2022-10-29T17:21:16;14.48;;;2.67;;
20251;SDS011;10284;58.364;15.550;2022-10-29T17:23:41;16.08;;;2.90;;
20251;SDS011;10284;58.364;15.550;2022-10-29T17:26:07;16.98;;;3.05;;
20251;SDS011;10284;58.364;15.550;2022-10-29T17:28:33;14.35;;;3.05;;
20251;SDS011;10284;58.364;15.550;2022-10-29T17:31:06;16.92;;;2.70;;
20251;SDS011;10284;58.364;15.550;2022-10-29T17:33:32;17.15;;;2.95;;
20251;SDS011;10284;58.364;15.550;2022-10-29T17:36:01;16.60;;;2.80;;
20251;SDS011;10284;58.364;15.550;2022-10-29T17:38:27;20.83;;;2.67;;
20251;SDS011;10284;58.364;15.550;2022-10-29T17:40:53;12.05;;;2.53;;
20251;SDS011;10284;58.364;15.550;2022-10-29T17:43:18;21.23;;;2.65;;